Time;durP1;ratioP1;P1;durP2;ratioP2;P2;SDS_P1;SDS_P2;PMS_P1;PMS_P2;Temp;Humidity;BMP_temperature;BMP_pressure;BME280_temperature;BME280_humidity;BME280_pressure;Samples;Min_cycle;Max_cycle;Signal;HPM_P1;HPM_P2
2024/04/18 00:00:27;;;;;;;4.18;2.30;;;;;;;5.03;100.00;68948.81;5523191;26;20069;-50
2024/04/18 00:02:55;;;;;;;4.93;2.40;;;;;;;4.99;100.00;68944.75;5520032;26;20084;-49
2024/04/18 00:05:25;;;;;;;4.80;2.60;;;;;;;5.01;100.00;68943.91;5520196;26;20579;-52
2024/04/18 00:07:55;;;;;;;5.03;2.75;;;;;;;5.00;100.00;68945.91;5491534;26;19997;-52
2024/04/18 00:10:26;;;;;;;5.85;2.88;;;;;;;5.00;100.00;68940.16;5523971;26;19998;-48
2024/04/18 00:12:54;;;;;;;5.03;2.88;;;;;;;4.96;100.00;68938.09;5523385;26;20005;-52
2024/04/18 00:15:24;;;;;;;5.15;2.70;;;;;;;4.90;100.00;68932.28;5522472;26;20417;-54
2024/04/18 00:17:52;;;;;;;4.68;2.40;;;;;;;4.88;100.00;68932.56;5519528;25;20064;-53
2024/04/18 00:20:22;;;;;;;5.40;2.60;;;;;;;4.88;100.00;68929.38;5522388;26;20042;-52
2024/04/18 00:22:50;;;;;;;5.72;2.70;;;;;;;4.84;100.00;68927.91;5523854;26;20012;-49
2024/04/18 00:25:23;;;;;;;4.60;2.65;;;;;;;4.84;100.00;68924.72;5523624;25;20016;-47
2024/04/18 00:27:51;;;;;;;5.07;2.60;;;;;;;4.87;100.00;68933.41;5491399;26;20001;-52
2024/04/18 00:30:21;;;;;;;5.60;2.85;;;;;;;4.80;100.00;68923.25;5489661;26;20085;-48
2024/04/18 00:32:49;;;;;;;6.25;3.03;;;;;;;4.83;100.00;68926.16;5519714;26;20072;-50
2024/04/18 00:35:19;;;;;;;6.13;3.00;;;;;;;4.78;100.00;68920.34;5522511;26;20025;-49
2024/04/18 00:37:47;;;;;;;5.57;2.95;;;;;;;4.74;100.00;68918.88;5523957;25;19997;-49
2024/04/18 00:40:18;;;;;;;6.13;3.00;;;;;;;4.61;100.00;68898.59;5523336;26;19997;-46
2024/04/18 00:42:49;;;;;;;4.85;2.60;;;;;;;4.64;100.00;68902.66;5523464;26;20008;-46
2024/04/18 00:45:21;;;;;;;6.10;2.97;;;;;;;4.67;100.00;68906.16;5490170;26;19997;-46
2024/04/18 00:47:49;;;;;;;5.45;2.63;;;;;;;4.69;100.00;68910.47;5490859;26;20802;-48
2024/04/18 00:50:22;;;;;;;4.95;2.47;;;;;;;4.65;100.00;68901.25;5523483;26;20044;-46
2024/04/18 00:52:50;;;;;;;5.25;2.33;;;;;;;4.67;100.00;68906.16;5523354;26;20037;-46
2024/04/18 00:55:20;;;;;;;4.97;2.67;;;;;;;4.63;100.00;68903.50;5521007;26;20448;-47
2024/04/18 00:57:52;;;;;;;5.45;2.72;;;;;;;4.62;100.00;68900.34;5518885;26;20322;-47
2024/04/18 01:00:22;;;;;;;6.38;2.80;;;;;;;4.64;100.00;68907.84;5521863;26;20001;-48
2024/04/18 01:02:50;;;;;;;5.18;2.40;;;;;;;4.61;100.00;68901.19;5522875;26;20009;-46
2024/04/18 01:05:21;;;;;;;5.47;2.30;;;;;;;4.56;100.00;68896.53;5522993;26;19998;-47
2024/04/18 01:07:49;;;;;;;5.85;2.60;;;;;;;4.54;100.00;68893.63;5523053;26;20005;-46
2024/04/18 01:10:19;;;;;;;4.68;2.35;;;;;;;4.53;100.00;68892.47;5522818;26;19997;-48
2024/04/18 01:12:58;;;;;;;4.40;2.30;;;;;;;4.50;100.00;68888.97;5522878;26;19997;-47
2024/04/18 01:15:28;;;;;;;5.63;2.17;;;;;;;4.47;100.00;68886.09;5517892;26;19997;-47
2024/04/18 01:17:56;;;;;;;6.20;2.22;;;;;;;4.42;100.00;68877.69;5523238;26;20008;-47
2024/04/18 01:20:28;;;;;;;7.88;2.38;;;;;;;4.42;100.00;68877.09;5522081;25;20389;-47
2024/04/18 01:22:56;;;;;;;4.07;1.88;;;;;;;4.39;100.00;68877.38;5490144;26;20013;-49
2024/04/18 01:25:26;;;;;;;5.35;2.30;;;;;;;4.33;100.00;68867.81;5521669;26;20009;-49
2024/04/18 01:27:57;;;;;;;6.55;2.10;;;;;;;4.28;100.00;68858.84;5522550;26;20433;-49
2024/04/18 01:30:28;;;;;;;6.95;1.75;;;;;;;4.23;100.00;68861.97;5521178;26;19997;-48
2024/04/18 01:32:56;;;;;;;4.13;2.00;;;;;;;4.21;100.00;68851.31;5517847;26;20076;-47
2024/04/18 01:35:26;;;;;;;6.00;1.90;;;;;;;4.19;100.00;68852.16;5519792;26;20081;-48
2024/04/18 01:37:54;;;;;;;8.15;1.90;;;;;;;4.18;100.00;68850.97;5522284;26;20009;-48
2024/04/18 01:40:24;;;;;;;3.40;1.70;;;;;;;4.15;100.00;68847.50;5522178;26;20406;-48
2024/04/18 01:42:57;;;;;;;5.07;2.03;;;;;;;4.11;100.00;68839.72;5522523;26;20020;-48
2024/04/18 01:45:31;;;;;;;6.30;2.00;;;;;;;4.07;100.00;68840.78;5522254;26;20029;-49
2024/04/18 01:47:59;;;;;;;4.00;1.90;;;;;;;4.01;100.00;68834.41;5522329;26;20002;-48
2024/04/18 01:50:29;;;;;;;5.22;1.80;;;;;;;3.97;100.00;68826.63;5521528;26;20069;-48
2024/04/18 01:52:58;;;;;;;5.00;1.92;;;;;;;3.93;100.00;68819.97;5522125;25;19997;-50
2024/04/18 01:55:28;;;;;;;3.72;1.80;;;;;;;4.02;100.00;68832.41;5488294;26;20308;-47
2024/04/18 01:57:59;;;;;;;4.88;1.67;;;;;;;3.96;100.00;68828.03;5517665;25;20029;-49
2024/04/18 02:00:29;;;;;;;6.72;1.80;;;;;;;3.90;100.00;68821.66;5518647;26;20008;-47
2024/04/18 02:02:57;;;;;;;3.65;1.60;;;;;;;3.87;100.00;68818.75;5521908;26;20421;-47
2024/04/18 02:05:27;;;;;;;3.83;1.60;;;;;;;3.82;100.00;68809.78;5521182;26;20009;-47
2024/04/18 02:07:59;;;;;;;4.97;1.80;;;;;;;3.77;100.00;68803.97;5489633;26;20743;-47
2024/04/18 02:10:30;;;;;;;4.78;1.67;;;;;;;3.72;100.00;68801.31;5489286;26;20069;-48
2024/04/18 02:13:01;;;;;;;3.85;1.80;;;;;;;3.75;100.00;68801.66;5522198;26;20009;-48
2024/04/18 02:15:32;;;;;;;5.72;1.90;;;;;;;3.70;100.00;68799.00;5489141;26;19998;-46
2024/04/18 02:18:00;;;;;;;4.10;1.73;;;;;;;3.62;100.00;68792.31;5488958;26;20030;-46
2024/04/18 02:20:32;;;;;;;5.72;1.88;;;;;;;3.64;100.00;68789.47;5488799;26;20052;-48
2024/04/18 02:22:59;;;;;;;3.88;1.75;;;;;;;3.57;100.00;68781.34;5521617;26;20025;-50
2024/04/18 02:25:30;;;;;;;6.38;1.88;;;;;;;3.52;100.00;68779.28;5521575;26;19997;-46
2024/04/18 02:28:00;;;;;;;5.40;2.03;;;;;;;3.48;100.00;68772.06;5521777;26;20456;-49
2024/04/18 02:30:31;;;;;;;6.00;2.00;;;;;;;3.43;100.00;68768.84;5521215;26;20073;-49
2024/04/18 02:32:59;;;;;;;6.50;2.38;;;;;;;3.49;100.00;68777.78;5521425;26;20008;-47
2024/04/18 02:35:29;;;;;;;4.00;1.73;;;;;;;3.48;100.00;68774.63;5520373;26;20006;-46
2024/04/18 02:37:57;;;;;;;4.70;1.75;;;;;;;3.40;100.00;68762.78;5524531;26;20049;-47
2024/04/18 02:40:27;;;;;;;4.95;2.05;;;;;;;3.38;100.00;68763.63;5491763;26;19997;-45
2024/04/18 02:42:55;;;;;;;4.10;1.80;;;;;;;3.29;100.00;68752.59;5525122;26;19994;-47
2024/04/18 02:45:28;;;;;;;4.97;1.60;;;;;;;3.29;100.00;68750.59;5524631;26;20445;-46
2024/04/18 02:47:56;;;;;;;4.40;1.70;;;;;;;3.28;100.00;68754.00;5492708;26;20065;-47
2024/04/18 02:50:26;;;;;;;4.22;2.00;;;;;;;3.19;100.00;68739.56;5524559;26;20008;-46
2024/04/18 02:52:58;;;;;;;6.40;2.10;;;;;;;3.16;100.00;68735.50;5525314;26;20008;-46
2024/04/18 02:55:28;;;;;;;4.80;1.98;;;;;;;3.14;100.00;68733.78;5524798;26;20010;-46
2024/04/18 02:57:56;;;;;;;6.22;1.90;;;;;;;3.13;100.00;68734.63;5524786;26;20623;-47
2024/04/18 03:00:29;;;;;;;4.50;1.88;;;;;;;3.13;100.00;68732.03;5524101;26;20489;-51
2024/04/18 03:02:58;;;;;;;6.75;2.10;;;;;;;3.09;100.00;68729.97;5525158;26;19994;-49
2024/04/18 03:05:29;;;;;;;6.00;1.98;;;;;;;3.04;100.00;68724.75;5524607;26;20015;-52
2024/04/18 03:07:56;;;;;;;6.35;1.92;;;;;;;2.98;100.00;68712.63;5524703;26;20009;-48
2024/04/18 03:10:27;;;;;;;5.43;2.15;;;;;;;2.91;100.00;68710.25;5520318;26;20033;-51
2024/04/18 03:12:55;;;;;;;4.20;1.98;;;;;;;2.89;100.00;68702.78;5521840;26;20008;-50
2024/04/18 03:15:28;;;;;;;6.25;1.85;;;;;;;2.88;100.00;68709.94;5523852;26;20054;-49
2024/04/18 03:17:58;;;;;;;4.82;1.92;;;;;;;2.85;100.00;68703.88;5492618;26;20010;-50
2024/04/18 03:20:29;;;;;;;4.35;1.88;;;;;;;2.82;100.00;68702.97;5519252;26;19998;-48
2024/04/18 03:22:56;;;;;;;5.50;2.25;;;;;;;2.77;100.00;68692.03;5521235;26;19989;-51
2024/04/18 03:25:30;;;;;;;5.30;1.75;;;;;;;2.76;100.00;68688.28;5492076;26;20020;-48
2024/04/18 03:27:58;;;;;;;4.15;1.88;;;;;;;2.73;100.00;68692.53;5524590;26;20009;-47
2024/04/18 03:30:31;;;;;;;6.15;2.13;;;;;;;2.70;100.00;68683.91;5524547;26;20009;-50
2024/04/18 03:32:59;;;;;;;7.85;2.17;;;;;;;2.70;100.00;68686.50;5492136;26;20005;-47
2024/04/18 03:35:29;;;;;;;8.18;2.13;;;;;;;2.67;100.00;68677.84;5492000;26;20360;-53
2024/04/18 03:38:00;;;;;;;6.85;2.10;;;;;;;2.61;100.00;68670.91;5524691;26;20025;-49
2024/04/18 03:40:30;;;;;;;5.78;1.88;;;;;;;2.59;100.00;68671.72;5524614;26;20008;-50
2024/04/18 03:43:01;;;;;;;8.57;2.17;;;;;;;2.61;100.00;68676.63;5524653;26;19997;-51
2024/04/18 03:45:31;;;;;;;6.38;2.28;;;;;;;2.58;100.00;68669.97;5491769;26;20073;-48
2024/04/18 03:48:02;;;;;;;3.63;1.50;;;;;;;2.53;100.00;68665.34;5519578;26;20001;-49
2024/04/18 03:50:29;;;;;;;6.10;1.88;;;;;;;2.50;100.00;68663.88;5521806;25;20005;-48
2024/04/18 03:53:00;;;;;;;7.25;2.00;;;;;;;2.51;100.00;68659.88;5489171;26;20451;-48
2024/04/18 03:55:28;;;;;;;7.95;2.08;;;;;;;2.48;100.00;68664.72;5520263;26;20012;-51
2024/04/18 03:57:58;;;;;;;8.77;1.95;;;;;;;2.48;100.00;68662.13;5522986;25;19993;-51
2024/04/18 04:00:26;;;;;;;4.28;1.80;;;;;;;2.44;100.00;68657.50;5524411;26;20320;-49
2024/04/18 04:03:01;;;;;;;7.55;2.00;;;;;;;2.41;100.00;68654.00;5524286;26;19993;-48
2024/04/18 04:05:29;;;;;;;6.97;2.10;;;;;;;2.38;100.00;68650.53;5519091;26;20051;-49
2024/04/18 04:08:00;;;;;;;7.22;1.92;;;;;;;2.41;100.00;68650.84;5520229;26;20009;-48
2024/04/18 04:10:27;;;;;;;6.32;1.90;;;;;;;2.36;100.00;68643.06;5523690;26;20030;-49
2024/04/18 04:12:58;;;;;;;6.88;2.13;;;;;;;2.34;100.00;68643.31;5523310;26;19997;-48
2024/04/18 04:15:25;;;;;;;6.10;1.80;;;;;;;2.31;100.00;68640.41;5521451;26;20074;-50
2024/04/18 04:18:02;;;;;;;9.25;2.00;;;;;;;2.26;100.00;68637.19;5519750;26;19998;-49
2024/04/18 04:20:29;;;;;;;5.70;2.00;;;;;;;2.25;100.00;68632.88;5518541;25;19999;-51
2024/04/18 04:23:00;;;;;;;6.72;2.15;;;;;;;2.22;100.00;68629.41;5523546;26;19993;-50
2024/04/18 04:25:27;;;;;;;5.25;1.80;;;;;;;2.20;100.00;68633.41;5524334;26;20005;-49
2024/04/18 04:28:00;;;;;;;6.28;2.13;;;;;;;2.20;100.00;68630.81;5523777;26;19997;-51
2024/04/18 04:30:28;;;;;;;5.90;1.98;;;;;;;2.18;100.00;68628.50;5488829;26;20012;-49
2024/04/18 04:32:58;;;;;;;5.78;2.00;;;;;;;2.17;100.00;68629.91;5519684;26;19997;-49
2024/04/18 04:35:28;;;;;;;5.90;1.98;;;;;;;2.15;100.00;68625.03;5522627;26;20001;-50
2024/04/18 04:37:59;;;;;;;5.15;2.15;;;;;;;2.16;100.00;68623.63;5522160;26;20017;-50
2024/04/18 04:40:26;;;;;;;5.60;1.77;;;;;;;2.12;100.00;68624.13;5519878;25;19990;-50
2024/04/18 04:42:57;;;;;;;6.15;1.95;;;;;;;2.10;100.00;68619.25;5521552;26;20033;-50
2024/04/18 04:45:27;;;;;;;4.78;1.45;;;;;;;2.06;100.00;68616.59;5523482;26;19997;-49
2024/04/18 04:47:57;;;;;;;6.00;1.95;;;;;;;2.04;100.00;68609.69;5522576;26;20012;-47
2024/04/18 04:50:28;;;;;;;6.20;1.73;;;;;;;2.02;100.00;68612.53;5523212;26;20004;-46
2024/04/18 04:52:59;;;;;;;7.13;1.70;;;;;;;2.00;100.00;68605.66;5523235;26;20002;-46
2024/04/18 04:55:26;;;;;;;4.25;1.80;;;;;;;2.01;100.00;68609.38;5522953;26;20472;-48
2024/04/18 04:57:59;;;;;;;7.32;2.42;;;;;;;1.98;100.00;68605.34;5522831;26;20453;-50
2024/04/18 05:00:27;;;;;;;7.78;2.00;;;;;;;1.97;100.00;68606.75;5521540;26;20025;-49
2024/04/18 05:02:57;;;;;;;7.45;2.05;;;;;;;1.96;100.00;68601.00;5522255;26;19993;-48
2024/04/18 05:05:28;;;;;;;5.70;1.95;;;;;;;1.95;100.00;68601.84;5522953;26;20432;-53
2024/04/18 05:07:59;;;;;;;6.28;2.00;;;;;;;1.98;100.00;68605.34;5521103;25;20008;-51
2024/04/18 05:10:26;;;;;;;4.50;1.80;;;;;;;1.96;100.00;68605.59;5486689;26;20005;-50
2024/04/18 05:13:00;;;;;;;5.45;1.67;;;;;;;1.92;100.00;68590.66;5522611;26;20065;-47
2024/04/18 05:15:28;;;;;;;6.75;2.13;;;;;;;1.95;100.00;68602.44;5523089;26;20001;-48
2024/04/18 05:17:58;;;;;;;6.50;1.90;;;;;;;1.98;100.00;68602.75;5490612;26;19994;-48
2024/04/18 05:20:29;;;;;;;6.43;2.35;;;;;;;2.00;100.00;68610.81;5523006;26;20005;-48
2024/04/18 05:22:59;;;;;;;4.85;1.75;;;;;;;2.01;100.00;68606.81;5490018;26;19993;-47
2024/04/18 05:25:27;;;;;;;6.60;1.85;;;;;;;2.00;100.00;68605.06;5522104;25;20043;-48
2024/04/18 05:28:10;;;;;;;4.38;1.70;;;;;;;2.03;100.00;68608.53;5516979;26;20069;-47
2024/04/18 05:33:27;;;;;;;3.80;1.60;;;;;;;2.06;100.00;68606.28;5486492;26;20004;-48
2024/04/18 05:36:02;;;;;;;;;;;;;;;2.07;100.00;68612.59;5517313;26;20002;-49
2024/04/18 05:38:32;;;;;;;6.88;1.70;;;;;;;2.07;100.00;68615.75;5490388;26;20016;-50
2024/04/18 05:41:02;;;;;;;5.75;1.65;;;;;;;2.13;100.00;68622.16;5522819;26;20324;-48
2024/04/18 05:43:33;;;;;;;4.13;1.75;;;;;;;2.15;100.00;68624.44;5522804;26;20064;-49
2024/04/18 05:46:04;;;;;;;6.35;1.80;;;;;;;2.19;100.00;68623.94;5518667;25;20046;-48
2024/04/18 05:48:35;;;;;;;4.18;1.55;;;;;;;2.19;100.00;68627.09;5486725;26;20081;-49
2024/04/18 05:51:08;;;;;;;7.15;2.00;;;;;;;2.27;100.00;68637.78;5521267;26;20009;-48
2024/04/18 05:53:41;;;;;;;6.72;1.80;;;;;;;2.33;100.00;68642.75;5518790;26;20912;-51
2024/04/18 05:56:11;;;;;;;7.25;2.25;;;;;;;2.38;100.00;68649.97;5520996;26;20076;-49
2024/04/18 05:58:40;;;;;;;8.30;2.50;;;;;;;2.50;100.00;68663.88;5518453;26;20719;-52
2024/04/18 06:01:10;;;;;;;3.97;1.83;;;;;;;2.56;100.00;68667.66;5518407;25;20008;-50
2024/04/18 06:03:38;;;;;;;5.75;2.10;;;;;;;2.65;100.00;68680.69;5518331;26;20810;-49
2024/04/18 06:06:11;;;;;;;8.90;2.13;;;;;;;2.75;100.00;68689.13;5514811;26;19997;-48
2024/04/18 06:08:41;;;;;;;6.55;2.25;;;;;;;2.81;100.00;68696.06;5518051;26;20040;-49
2024/04/18 06:11:12;;;;;;;8.90;2.55;;;;;;;2.88;100.00;68707.34;5518463;26;20008;-50
2024/04/18 06:13:42;;;;;;;7.72;2.35;;;;;;;3.02;100.00;68722.44;5492302;26;20016;-51
2024/04/18 06:16:13;;;;;;;7.63;2.72;;;;;;;3.10;100.00;68729.13;5520962;26;19997;-48
2024/04/18 06:18:44;;;;;;;12.40;2.50;;;;;;;3.28;100.00;68746.28;5521842;26;20322;-49
2024/04/18 06:21:17;;;;;;;6.07;2.10;;;;;;;3.36;100.00;68758.13;5519143;26;19997;-48
2024/04/18 06:23:48;;;;;;;6.72;2.28;;;;;;;3.51;100.00;68772.94;5525092;26;20023;-48
2024/04/18 06:26:19;;;;;;;4.63;2.13;;;;;;;3.59;100.00;68783.66;5492750;26;20001;-49
2024/04/18 06:28:49;;;;;;;4.70;2.00;;;;;;;3.71;100.00;68797.59;5524989;26;20006;-48
2024/04/18 06:31:20;;;;;;;6.22;2.15;;;;;;;3.80;100.00;68810.59;5525102;26;19997;-49
2024/04/18 06:33:50;;;;;;;8.45;2.17;;;;;;;3.89;100.00;68820.50;5524933;26;19994;-49
2024/04/18 06:36:23;;;;;;;8.52;2.63;;;;;;;4.01;100.00;68829.25;5524967;26;20437;-50
2024/04/18 06:38:53;;;;;;;4.55;1.90;;;;;;;4.18;100.00;68850.97;5525291;26;20001;-46
2024/04/18 06:41:24;;;;;;;6.97;2.30;;;;;;;4.30;100.00;68863.75;5524812;26;20005;-48
2024/04/18 06:43:54;;;;;;;7.57;2.10;;;;;;;4.47;100.00;68882.91;5489799;26;19997;-48
2024/04/18 06:46:25;;;;;;;5.95;1.98;;;;;;;4.59;100.00;68893.69;5520790;26;20396;-47
2024/04/18 06:48:55;;;;;;;5.43;2.10;;;;;;;4.78;100.00;68915.75;5524495;26;20465;-47
2024/04/18 06:51:28;;;;;;;8.35;2.15;;;;;;;4.94;100.00;68935.78;5524899;26;19997;-49
2024/04/18 06:53:59;;;;;;;6.00;1.65;;;;;;;5.12;100.00;68959.28;5492317;26;19989;-46
2024/04/18 06:56:30;;;;;;;5.13;1.92;;;;;;;5.33;100.00;68982.50;5525039;25;20432;-48
2024/04/18 06:59:02;;;;;;;7.50;1.85;;;;;;;5.50;100.00;68999.69;5524945;26;20321;-46
2024/04/18 07:01:32;;;;;;;6.82;1.38;;;;;;;5.73;100.00;69027.84;5525346;25;20000;-49
2024/04/18 07:04:03;;;;;;;5.40;2.03;;;;;;;5.83;100.00;69036.31;5525224;26;20038;-50
2024/04/18 07:06:37;;;;;;;7.20;1.55;;;;;;;5.99;100.00;69057.53;5492926;26;20792;-48
2024/04/18 07:09:09;;;;;;;8.10;1.60;;;;;;;6.16;100.00;69074.13;5524951;26;19994;-51
2024/04/18 07:11:40;;;;;;;4.57;1.10;;;;;;;6.38;100.00;69098.53;5491931;26;20000;-46
2024/04/18 07:14:10;;;;;;;4.75;1.00;;;;;;;6.58;100.00;69121.81;5524421;26;19993;-46
2024/04/18 07:16:41;;;;;;;4.85;1.10;;;;;;;6.82;100.00;69151.16;5524476;26;20012;-46
2024/04/18 07:19:11;;;;;;;4.38;1.40;;;;;;;6.96;100.00;69166.31;5524771;26;20338;-50
2024/04/18 07:21:44;;;;;;;2.67;0.90;;;;;;;7.14;100.00;69182.06;5492156;26;19989;-49
2024/04/18 07:24:14;;;;;;;3.78;1.77;;;;;;;7.34;100.00;69206.78;5523624;25;19993;-48
2024/04/18 07:26:45;;;;;;;5.47;1.02;;;;;;;7.50;100.00;69224.81;5524327;26;19998;-48
2024/04/18 07:29:15;;;;;;;3.95;1.23;;;;;;;7.67;100.00;69238.84;5524549;26;19997;-48
2024/04/18 07:31:46;;;;;;;3.55;0.95;;;;;;;7.86;100.00;69265.56;5521512;25;19994;-47
2024/04/18 07:34:16;;;;;;;4.53;1.08;;;;;;;8.11;100.00;69294.69;5519920;26;20388;-49
2024/04/18 07:36:50;;;;;;;2.67;0.93;;;;;;;8.24;100.00;69306.06;5524016;26;19993;-47
2024/04/18 07:39:20;;;;;;;3.17;1.00;;;;;;;8.43;100.00;69330.78;5524456;26;20034;-46
2024/04/18 07:41:53;;;;;;;3.70;0.80;;;;;;;8.61;100.00;69348.59;5524244;26;20117;-47
2024/04/18 07:44:24;;;;;;;4.32;1.23;;;;;;;8.83;100.00;69378.28;5524441;26;19993;-47
2024/04/18 07:46:55;;;;;;;5.38;1.00;;;;;;;8.80;100.00;69372.78;5524200;26;20001;-47
2024/04/18 07:49:24;;;;;;;4.47;1.02;;;;;;;8.75;100.00;69363.75;5491491;26;20030;-46
2024/04/18 07:51:59;;;;;;;6.72;1.15;;;;;;;8.82;100.00;69373.94;5524151;26;20001;-47
2024/04/18 07:54:41;;;;;;;3.28;0.90;;;;;;;8.82;100.00;69374.53;5524316;26;20008;-48
2024/04/18 07:57:11;;;;;;;5.28;1.15;;;;;;;8.73;100.00;69367.22;5524003;25;20069;-48
2024/04/18 07:59:41;;;;;;;2.85;0.85;;;;;;;8.60;100.00;69352.06;5523944;26;20858;-50
2024/04/18 08:02:13;;;;;;;3.25;0.98;;;;;;;8.51;100.00;69342.16;5524025;26;20042;-47
2024/04/18 08:04:45;;;;;;;;;;;;;;;8.52;100.00;69340.75;5524399;25;20012;-48
2024/04/18 08:07:31;;;;;;;2.42;0.80;;;;;;;8.60;100.00;69357.88;5524146;26;19927;-47
2024/04/18 08:10:06;;;;;;;4.47;1.10;;;;;;;8.58;100.00;69349.75;5523831;26;19993;-50
2024/04/18 08:12:43;;;;;;;3.00;1.10;;;;;;;8.58;100.00;69345.13;5523962;25;19998;-46
2024/04/18 08:15:19;;;;;;;1.95;1.00;;;;;;;8.52;100.00;69340.75;5523645;26;20369;-48
2024/04/18 08:17:59;;;;;;;4.63;1.17;;;;;;;8.65;100.00;69349.50;5523728;26;20077;-47
2024/04/18 08:20:29;;;;;;;2.75;0.82;;;;;;;8.74;100.00;69362.59;5523414;26;20033;-46
2024/04/18 08:23:02;;;;;;;5.00;0.98;;;;;;;8.83;100.00;69375.69;5523615;26;20016;-48
2024/04/18 08:25:33;;;;;;;2.95;0.88;;;;;;;9.16;100.00;69412.41;5523550;26;20069;-46
2024/04/18 08:28:05;;;;;;;3.25;1.00;;;;;;;9.28;100.00;69429.00;5523384;26;20002;-51
2024/04/18 08:30:36;;;;;;;4.65;1.00;;;;;;;9.44;100.00;69444.47;5523522;26;20348;-48
2024/04/18 08:33:06;;;;;;;4.65;1.20;;;;;;;9.71;100.00;69472.78;5523786;25;20329;-47
2024/04/18 08:35:37;;;;;;;3.58;1.10;;;;;;;9.91;100.00;69500.16;5523180;26;20001;-47
2024/04/18 08:38:11;;;;;;;4.43;1.02;;;;;;;10.16;100.00;69528.75;5523777;26;20029;-46
2024/04/18 08:40:44;;;;;;;5.28;1.20;;;;;;;10.46;100.00;69557.38;5523406;26;20068;-46
2024/04/18 08:43:15;;;;;;;3.63;1.02;;;;;;;10.70;100.00;69584.78;5523449;26;20332;-49
2024/04/18 08:45:46;;;;;;;4.32;0.90;;;;;;;10.93;100.00;69611.06;5523431;26;20124;-47
2024/04/18 08:48:17;;;;;;;2.92;1.05;;;;;;;11.15;100.00;69641.41;5523353;26;20033;-47
2024/04/18 08:50:48;;;;;;;4.60;0.70;;;;;;;11.36;100.00;69656.31;5523078;26;20519;-46
2024/04/18 08:53:23;;;;;;;2.78;0.90;;;;;;;11.65;100.00;69692.22;5523286;26;19999;-50
2024/04/18 08:55:58;;;;;;;4.22;0.70;;;;;;;11.79;100.00;69708.59;5523159;25;19997;-49
2024/04/18 08:58:31;;;;;;;3.42;0.90;;;;;;;11.91;100.00;69724.06;5522903;26;20157;-48
2024/04/18 09:01:05;;;;;;;5.25;1.08;;;;;;;11.79;100.00;69705.38;5523028;26;20064;-50
2024/04/18 09:03:37;;;;;;;3.40;0.90;;;;;;;11.76;100.00;69707.13;5520342;26;20005;-49
2024/04/18 09:06:11;;;;;;;4.72;0.80;;;;;;;11.69;100.00;69688.47;5516448;26;20065;-47
2024/04/18 09:08:45;;;;;;;3.77;0.60;;;;;;;11.76;99.40;69704.50;5523251;26;20013;-47
2024/04/18 09:11:15;;;;;;;2.78;0.70;;;;;;;11.92;95.80;69725.81;5523272;26;20513;-49
2024/04/18 09:13:46;;;;;;;3.88;0.60;;;;;;;12.24;83.52;69756.81;5490527;26;20069;-48
2024/04/18 09:16:17;;;;;;;3.90;0.80;;;;;;;12.28;75.14;69761.47;5523239;26;20318;-46
2024/04/18 09:18:50;;;;;;;3.88;0.70;;;;;;;12.46;81.85;69789.19;5522686;25;20013;-48
2024/04/18 09:21:22;;;;;;;2.30;0.80;;;;;;;12.78;80.70;69818.19;5522557;26;20039;-48
2024/04/18 09:23:53;;;;;;;3.63;1.00;;;;;;;13.20;85.81;69870.78;5522600;26;19998;-47
2024/04/18 09:26:23;;;;;;;5.95;1.38;;;;;;;13.23;75.63;69869.03;5522867;26;20072;-48
2024/04/18 09:28:54;;;;;;;2.53;0.70;;;;;;;13.50;84.50;69902.69;5522745;26;20004;-47
2024/04/18 09:31:25;;;;;;;2.22;0.50;;;;;;;13.27;68.20;69875.75;5522395;26;19994;-48
2024/04/18 09:34:07;;;;;;;3.00;0.70;;;;;;;13.14;70.69;69858.50;5488216;26;20002;-48
2024/04/18 09:36:39;;;;;;;2.28;0.68;;;;;;;13.16;65.70;69863.47;5515900;26;19997;-51
2024/04/18 09:39:13;;;;;;;;;;;;;;;13.25;65.05;69873.41;5522095;26;19997;-48
2024/04/18 09:41:51;;;;;;;2.47;0.82;;;;;;;13.65;66.91;69919.66;5522514;26;19968;-49
2024/04/18 09:44:24;;;;;;;2.42;0.60;;;;;;;13.87;59.78;69944.22;5522635;26;19998;-49
2024/04/18 09:46:58;;;;;;;3.05;0.68;;;;;;;14.18;61.43;69979.91;5523775;26;20009;-47
2024/04/18 09:49:30;;;;;;;2.40;0.55;;;;;;;14.24;56.23;69983.13;5526203;26;20449;-50
2024/04/18 09:52:02;;;;;;;2.67;0.50;;;;;;;14.30;58.46;69992.78;5521972;26;19997;-53
2024/04/18 09:54:35;;;;;;;1.60;0.50;;;;;;;14.20;55.22;69981.66;5522977;26;20002;-52
2024/04/18 09:57:07;;;;;;;0.90;0.43;;;;;;;14.21;52.56;69982.84;5525988;26;20291;-47
2024/04/18 09:59:41;;;;;;;2.92;0.82;;;;;;;14.14;54.83;69972.59;5525880;26;20008;-49
2024/04/18 10:02:15;;;;;;;1.17;0.60;;;;;;;14.50;53.14;70016.19;5493278;26;20338;-49
2024/04/18 10:04:46;;;;;;;1.65;0.60;;;;;;;14.85;50.31;70052.81;5526138;26;19994;-49
2024/04/18 10:07:20;;;;;;;3.53;0.63;;;;;;;14.91;50.79;70061.88;5526343;26;20004;-50
2024/04/18 10:09:54;;;;;;;2.95;0.80;;;;;;;14.68;54.59;70036.72;5526043;26;19997;-51
2024/04/18 10:12:34;;;;;;;2.20;0.60;;;;;;;14.03;56.59;69959.75;5522739;26;19993;-47
2024/04/18 10:15:05;;;;;;;2.17;0.70;;;;;;;13.90;61.13;69950.34;5521181;26;20009;-51
2024/04/18 10:17:38;;;;;;;3.42;0.80;;;;;;;13.29;74.26;69883.94;5525803;26;20337;-50
2024/04/18 10:20:10;;;;;;;5.20;1.08;;;;;;;13.09;83.33;69855.28;5525482;26;20387;-51
2024/04/18 10:22:43;;;;;;;4.85;1.00;;;;;;;12.93;84.31;69834.56;5525487;25;20002;-51
2024/04/18 10:25:25;;;;;;;4.47;0.98;;;;;;;12.63;84.04;69809.09;5525568;26;20009;-51
2024/04/18 10:27:55;;;;;;;2.75;0.82;;;;;;;12.75;85.97;69816.69;5525250;26;20016;-45
2024/04/18 10:30:27;;;;;;;4.88;1.00;;;;;;;12.92;83.01;69836.00;5524960;26;20335;-47
2024/04/18 10:32:58;;;;;;;2.67;0.77;;;;;;;13.00;82.54;69840.13;5525180;26;20065;-48
2024/04/18 10:35:30;;;;;;;3.30;0.90;;;;;;;13.14;87.17;69863.75;5525061;26;20004;-49
2024/04/18 10:38:02;;;;;;;4.45;1.13;;;;;;;13.53;79.71;69908.22;5492639;26;20004;-47
2024/04/18 10:40:36;;;;;;;3.97;1.27;;;;;;;13.85;77.66;69941.88;5525261;26;20087;-48
2024/04/18 10:43:13;;;;;;;4.30;0.90;;;;;;;14.08;75.04;69968.19;5525130;26;20069;-47
2024/04/18 10:45:49;;;;;;;4.75;1.08;;;;;;;14.36;66.77;69997.19;5525180;26;20121;-49
2024/04/18 10:48:22;;;;;;;5.22;0.88;;;;;;;14.77;74.93;70041.41;5525082;26;19994;-46
2024/04/18 10:50:52;;;;;;;;;;;;;;;14.87;64.74;70057.78;5525586;26;19993;-48
2024/04/18 10:53:23;;;;;;;4.13;0.70;;;;;;;14.76;64.21;70042.28;5524985;26;19923;-47
2024/04/18 10:55:56;;;;;;;2.40;0.60;;;;;;;14.75;62.45;70041.09;5524733;26;20004;-51
2024/04/18 10:58:28;;;;;;;3.83;0.75;;;;;;;14.66;61.84;70036.41;5522941;26;20009;-48
2024/04/18 11:01:01;;;;;;;2.05;0.63;;;;;;;14.15;62.46;69981.06;5519903;26;20019;-50
2024/04/18 11:03:31;;;;;;;;;;;;;;;13.91;60.18;69948.31;5523004;25;19997;-47
2024/04/18 11:06:04;;;;;;;3.30;0.85;;;;;;;13.78;63.85;69933.69;5524861;26;19938;-50
2024/04/18 11:08:34;;;;;;;;;;;;;;;13.42;63.25;69898.00;5525356;26;20313;-47
2024/04/18 11:11:08;;;;;;;3.15;0.82;;;;;;;13.14;65.04;69863.75;5491777;26;20251;-50
2024/04/18 11:13:38;;;;;;;1.95;0.57;;;;;;;13.30;65.77;69881.88;5524441;25;20046;-48
2024/04/18 11:16:09;;;;;;;4.50;0.90;;;;;;;13.28;61.83;69879.53;5491906;26;20005;-51
2024/04/18 11:18:40;;;;;;;2.97;0.82;;;;;;;13.59;60.50;69912.03;5524380;26;20322;-49
2024/04/18 11:21:11;;;;;;;2.08;0.75;;;;;;;14.10;61.11;69967.34;5515086;25;19998;-50
2024/04/18 11:23:42;;;;;;;1.98;0.70;;;;;;;14.58;54.92;70024.97;5521149;25;20002;-48
2024/04/18 11:26:24;;;;;;;3.67;0.80;;;;;;;15.06;59.77;70078.88;5533710;25;20011;-49
2024/04/18 11:28:55;;;;;;;2.72;0.90;;;;;;;15.11;55.32;70085.31;5529745;25;20016;-51
2024/04/18 11:31:26;;;;;;;3.13;0.85;;;;;;;14.80;53.09;70052.22;5549787;25;20021;-49
2024/04/18 11:33:57;;;;;;;2.15;0.77;;;;;;;14.47;53.54;70012.09;5528293;25;20357;-50
2024/04/18 11:36:28;;;;;;;4.87;0.90;;;;;;;13.97;54.93;69955.91;5535718;25;20373;-51
2024/04/18 11:39:03;;;;;;;4.18;0.80;;;;;;;13.93;57.47;69951.22;5545826;25;20012;-48
2024/04/18 11:41:36;;;;;;;2.95;0.68;;;;;;;13.65;55.55;69919.66;5513109;25;20013;-50
2024/04/18 11:44:10;;;;;;;3.97;0.90;;;;;;;13.75;63.23;69928.13;5518237;26;20008;-50
2024/04/18 11:46:38;;;;;;;2.05;0.70;;;;;;;13.75;64.92;69933.38;5523620;26;20001;-51
2024/04/18 11:49:08;;;;;;;4.05;0.82;;;;;;;13.87;65.50;69949.47;5523428;26;20332;-48
2024/04/18 11:51:39;;;;;;;4.30;1.50;;;;;;;13.91;67.84;69954.16;5523981;25;20456;-49
2024/04/18 11:54:06;;;;;;;4.07;1.17;;;;;;;14.31;65.79;69991.31;5526405;25;20004;-51